createdAt,value
2019-01-13T00:01:23.608Z,100.00
2019-01-13T00:03:54.530Z,100.00
2019-01-13T00:06:25.065Z,100.00
2019-01-13T00:08:55.635Z,100.00
2019-01-13T00:11:26.138Z,100.00
2019-01-13T00:13:56.785Z,100.00
2019-01-13T00:16:27.340Z,100.00
2019-01-13T00:18:58.166Z,100.00
2019-01-13T00:21:28.677Z,100.00
2019-01-13T00:23:59.173Z,100.00
2019-01-13T00:26:29.776Z,100.00
2019-01-13T00:29:00.256Z,100.00
2019-01-13T00:31:30.837Z,100.00
2019-01-13T00:34:01.362Z,100.00
2019-01-13T00:36:31.884Z,100.00
2019-01-13T00:39:02.428Z,100.00
2019-01-13T00:41:33.880Z,100.00
2019-01-13T00:44:05.893Z,100.00
2019-01-13T00:46:36.454Z,100.00
2019-01-13T00:49:07.050Z,100.00
2019-01-13T00:51:37.639Z,100.00
2019-01-13T00:54:08.144Z,100.00
2019-01-13T00:56:38.673Z,100.00
2019-01-13T00:59:09.229Z,100.00
2019-01-13T01:01:39.738Z,100.00
2019-01-13T01:04:10.271Z,100.00
2019-01-13T01:06:40.791Z,100.00
2019-01-13T01:09:12.184Z,100.00
2019-01-13T01:11:42.720Z,100.00
2019-01-13T01:14:13.336Z,100.00
2019-01-13T01:16:43.896Z,100.00
2019-01-13T01:19:14.406Z,100.00
2019-01-13T01:21:44.947Z,100.00
2019-01-13T01:24:15.450Z,100.00
2019-01-13T01:26:46.031Z,100.00
2019-01-13T01:29:16.580Z,100.00
2019-01-13T01:31:47.135Z,100.00
2019-01-13T01:34:17.691Z,100.00
2019-01-13T01:36:48.225Z,100.00
2019-01-13T01:39:18.768Z,100.00
2019-01-13T01:41:49.283Z,100.00
2019-01-13T01:44:19.769Z,100.00
2019-01-13T01:46:50.349Z,100.00
2019-01-13T01:49:20.865Z,100.00
2019-01-13T01:51:51.426Z,100.00
2019-01-13T01:54:21.885Z,100.00
2019-01-13T01:56:53.417Z,100.00
2019-01-13T01:59:23.931Z,100.00
2019-01-13T02:01:54.524Z,100.00
2019-01-13T02:04:25.122Z,100.00
2019-01-13T02:06:55.690Z,100.00
2019-01-13T02:09:26.242Z,100.00
2019-01-13T02:11:56.836Z,100.00
2019-01-13T02:14:27.369Z,100.00
2019-01-13T02:16:57.895Z,100.00
2019-01-13T02:19:28.393Z,100.00
2019-01-13T02:21:58.946Z,100.00
2019-01-13T02:24:29.464Z,100.00
2019-01-13T02:27:00.008Z,100.00
2019-01-13T02:29:30.533Z,100.00
2019-01-13T02:32:01.064Z,100.00
2019-01-13T02:34:31.594Z,100.00
2019-01-13T02:37:02.142Z,100.00
2019-01-13T02:39:32.661Z,100.00
2019-01-13T02:42:03.235Z,100.00
2019-01-13T02:44:33.710Z,100.00
2019-01-13T02:47:04.261Z,100.00
2019-01-13T02:49:34.793Z,100.00
2019-01-13T02:52:05.345Z,100.00
2019-01-13T02:54:35.913Z,100.00
2019-01-13T02:57:06.435Z,100.00
2019-01-13T02:59:36.920Z,100.00
2019-01-13T03:02:08.184Z,100.00
2019-01-13T03:04:38.693Z,100.00
2019-01-13T03:07:09.211Z,100.00
2019-01-13T03:09:39.716Z,100.00
2019-01-13T03:12:10.291Z,100.00
2019-01-13T03:14:40.820Z,100.00
2019-01-13T03:17:11.374Z,100.00
2019-01-13T03:19:41.896Z,100.00
2019-01-13T03:22:12.443Z,100.00
2019-01-13T03:24:42.935Z,100.00
2019-01-13T03:27:13.456Z,100.00
2019-01-13T03:29:44.024Z,100.00
2019-01-13T03:32:14.640Z,100.00
2019-01-13T03:34:45.116Z,100.00
2019-01-13T03:37:15.675Z,100.00
2019-01-13T03:39:46.235Z,100.00
2019-01-13T03:42:16.766Z,100.00
2019-01-13T03:44:47.303Z,100.00
2019-01-13T03:47:17.822Z,100.00
2019-01-13T03:49:48.363Z,100.00
2019-01-13T03:52:18.936Z,100.00
2019-01-13T03:54:49.495Z,100.00
2019-01-13T03:57:19.997Z,100.00
2019-01-13T03:59:50.533Z,100.00
2019-01-13T04:02:21.040Z,100.00
2019-01-13T04:04:51.603Z,100.00
2019-01-13T04:07:22.120Z,100.00
2019-01-13T04:09:52.585Z,100.00
2019-01-13T04:12:24.023Z,100.00
2019-01-13T04:14:54.533Z,100.00
2019-01-13T04:17:26.352Z,100.00
2019-01-13T04:19:56.911Z,100.00
2019-01-13T04:22:27.411Z,100.00
2019-01-13T04:24:57.926Z,100.00
2019-01-13T04:27:29.899Z,100.00
2019-01-13T04:30:00.458Z,100.00
2019-01-13T04:32:31.025Z,100.00
2019-01-13T04:35:01.709Z,100.00
2019-01-13T04:37:32.214Z,100.00
2019-01-13T04:40:02.749Z,100.00
2019-01-13T04:42:33.275Z,100.00
2019-01-13T04:45:04.084Z,100.00
2019-01-13T04:47:34.618Z,100.00
2019-01-13T04:50:06.075Z,100.00
2019-01-13T04:52:36.631Z,100.00
2019-01-13T04:55:07.402Z,100.00
2019-01-13T04:57:40.412Z,100.00
2019-01-13T05:00:15.716Z,100.00
2019-01-13T05:02:46.746Z,100.00
2019-01-13T05:05:17.259Z,100.00
2019-01-13T05:07:47.774Z,100.00
2019-01-13T05:10:20.137Z,100.00
2019-01-13T05:12:50.717Z,100.00
2019-01-13T05:15:21.219Z,100.00
2019-01-13T05:17:51.764Z,100.00
2019-01-13T05:20:23.512Z,100.00
2019-01-13T05:22:57.082Z,100.00
2019-01-13T05:25:27.688Z,100.00
2019-01-13T05:27:58.247Z,100.00
2019-01-13T05:30:28.728Z,100.00
2019-01-13T05:32:59.205Z,100.00
2019-01-13T05:35:29.793Z,100.00
2019-01-13T05:38:03.805Z,100.00
2019-01-13T05:40:34.380Z,100.00
2019-01-13T05:43:04.896Z,100.00
2019-01-13T05:45:35.503Z,100.00
2019-01-13T05:48:06.059Z,100.00
2019-01-13T05:50:40.758Z,100.00
2019-01-13T05:53:13.812Z,100.00
2019-01-13T05:55:45.943Z,100.00
2019-01-13T05:58:21.378Z,100.00
2019-01-13T06:00:54.536Z,100.00
2019-01-13T06:03:29.740Z,100.00
2019-01-13T06:06:04.775Z,100.00
2019-01-13T06:08:39.917Z,100.00
2019-01-13T06:11:11.504Z,100.00
2019-01-13T06:13:45.697Z,100.00
2019-01-13T06:16:21.170Z,100.00
2019-01-13T06:18:51.771Z,100.00
2019-01-13T06:21:22.326Z,100.00
2019-01-13T06:23:52.873Z,100.00
2019-01-13T06:26:23.408Z,100.00
2019-01-13T06:28:53.945Z,100.00
2019-01-13T06:31:28.436Z,100.00
2019-01-13T06:33:58.965Z,100.00
2019-01-13T06:36:29.545Z,100.00
2019-01-13T06:39:00.047Z,100.00
2019-01-13T06:41:30.555Z,100.00
2019-01-13T06:44:01.103Z,100.00
2019-01-13T06:46:31.655Z,100.00
2019-01-13T06:49:02.312Z,100.00
2019-01-13T06:51:32.818Z,100.00
2019-01-13T06:54:03.358Z,100.00
2019-01-13T06:56:33.881Z,100.00
2019-01-13T06:59:04.415Z,100.00
2019-01-13T07:01:34.986Z,100.00
2019-01-13T07:04:07.010Z,100.00
2019-01-13T07:06:37.560Z,100.00
2019-01-13T07:09:09.368Z,100.00
2019-01-13T07:11:39.904Z,100.00
2019-01-13T07:14:10.446Z,100.00
2019-01-13T07:16:41.001Z,100.00
2019-01-13T07:19:11.575Z,100.00
2019-01-13T07:21:42.154Z,100.00
2019-01-13T07:24:12.681Z,100.00
2019-01-13T07:26:43.230Z,100.00
2019-01-13T07:29:13.770Z,100.00
2019-01-13T07:31:44.328Z,100.00
2019-01-13T07:34:14.846Z,100.00
2019-01-13T07:36:45.377Z,100.00
2019-01-13T07:39:15.927Z,100.00
2019-01-13T07:41:46.520Z,100.00
2019-01-13T07:44:17.620Z,100.00
2019-01-13T07:46:48.198Z,100.00
2019-01-13T07:49:21.273Z,100.00
2019-01-13T07:51:51.804Z,100.00
2019-01-13T07:54:22.404Z,100.00
2019-01-13T07:56:52.977Z,100.00
2019-01-13T07:59:25.595Z,100.00
2019-01-13T08:01:56.122Z,100.00
2019-01-13T08:04:26.648Z,100.00
2019-01-13T08:06:57.227Z,100.00
2019-01-13T08:09:30.542Z,100.00
2019-01-13T08:12:01.063Z,100.00
2019-01-13T08:14:33.998Z,100.00
2019-01-13T08:17:04.540Z,100.00
2019-01-13T08:19:35.070Z,100.00
2019-01-13T08:22:05.581Z,100.00
2019-01-13T08:24:36.107Z,100.00
2019-01-13T08:27:06.759Z,100.00
2019-01-13T08:29:37.242Z,100.00
2019-01-13T08:32:07.760Z,100.00
2019-01-13T08:34:38.296Z,100.00
2019-01-13T08:37:08.841Z,100.00
2019-01-13T08:39:39.401Z,100.00
2019-01-13T08:42:12.097Z,100.00
2019-01-13T08:44:42.637Z,100.00
2019-01-13T08:47:13.138Z,100.00
2019-01-13T08:49:43.688Z,100.00
2019-01-13T08:52:14.221Z,100.00
2019-01-13T08:54:44.802Z,100.00
2019-01-13T08:57:15.278Z,100.00
2019-01-13T08:59:45.855Z,100.00
2019-01-13T09:02:16.407Z,100.00
2019-01-13T09:04:46.911Z,100.00
2019-01-13T09:07:17.443Z,100.00
2019-01-13T09:09:47.964Z,100.00
2019-01-13T09:12:18.483Z,100.00
2019-01-13T09:14:49.081Z,100.00
2019-01-13T09:17:19.564Z,100.00
2019-01-13T09:19:50.137Z,100.00
2019-01-13T09:22:20.666Z,100.00
2019-01-13T09:24:51.194Z,100.00
2019-01-13T09:27:21.723Z,100.00
2019-01-13T09:29:52.237Z,100.00
2019-01-13T09:32:24.296Z,100.00
2019-01-13T09:34:54.893Z,100.00
2019-01-13T09:37:25.449Z,100.00
2019-01-13T09:39:56.017Z,100.00
2019-01-13T09:42:26.526Z,100.00
2019-01-13T09:44:57.103Z,100.00
2019-01-13T09:47:27.607Z,100.00
2019-01-13T09:49:58.190Z,100.00
2019-01-13T09:52:28.740Z,100.00
2019-01-13T09:54:59.305Z,100.00
2019-01-13T09:57:29.790Z,100.00
2019-01-13T10:00:02.742Z,100.00
2019-01-13T10:02:33.290Z,100.00
2019-01-13T10:05:03.927Z,100.00
2019-01-13T10:07:36.190Z,100.00
2019-01-13T10:10:08.892Z,100.00
2019-01-13T10:12:39.412Z,100.00
2019-01-13T10:15:15.354Z,100.00
2019-01-13T10:17:45.908Z,100.00
2019-01-13T10:20:17.271Z,100.00
2019-01-13T10:22:47.820Z,100.00
2019-01-13T10:25:21.902Z,100.00
2019-01-13T10:27:52.488Z,100.00
2019-01-13T10:30:29.389Z,100.00
2019-01-13T10:33:00.059Z,100.00
2019-01-13T10:35:30.971Z,100.00
2019-01-13T10:38:01.785Z,100.00
2019-01-13T10:40:34.204Z,100.00
2019-01-13T10:43:04.748Z,100.00
2019-01-13T10:45:35.354Z,100.00
2019-01-13T10:48:08.634Z,100.00
2019-01-13T10:50:39.176Z,100.00
2019-01-13T10:53:10.447Z,100.00
2019-01-13T10:55:43.064Z,100.00
2019-01-13T10:58:13.607Z,100.00
2019-01-13T11:00:44.224Z,100.00
2019-01-13T11:03:14.759Z,100.00
2019-01-13T11:05:45.315Z,100.00
2019-01-13T11:08:15.863Z,100.00
2019-01-13T11:10:46.498Z,100.00
2019-01-13T11:13:17.105Z,100.00
2019-01-13T11:15:47.716Z,100.00
2019-01-13T11:18:21.304Z,100.00
2019-01-13T11:20:51.831Z,100.00
2019-01-13T11:23:22.354Z,100.00
2019-01-13T11:25:52.919Z,100.00
2019-01-13T11:28:23.470Z,100.00
2019-01-13T11:30:54.030Z,100.00
2019-01-13T11:33:24.552Z,100.00
2019-01-13T11:35:56.152Z,100.00
2019-01-13T11:38:29.068Z,100.00
2019-01-13T11:40:59.622Z,100.00
2019-01-13T11:43:30.188Z,100.00
2019-01-13T11:46:00.762Z,100.00
2019-01-13T11:48:31.322Z,100.00
2019-01-13T11:51:01.879Z,100.00
2019-01-13T11:53:32.391Z,100.00
2019-01-13T11:56:04.452Z,100.00
2019-01-13T11:58:43.118Z,100.00
2019-01-13T12:01:13.869Z,100.00
2019-01-13T12:03:44.380Z,100.00
2019-01-13T12:06:17.983Z,100.00
2019-01-13T12:08:48.537Z,100.00
2019-01-13T12:11:19.132Z,100.00
2019-01-13T12:13:49.695Z,100.00
2019-01-13T12:16:20.967Z,100.00
2019-01-13T12:18:52.576Z,100.00
2019-01-13T12:21:23.127Z,100.00
2019-01-13T12:23:55.709Z,100.00
2019-01-13T12:26:26.294Z,100.00
2019-01-13T12:29:05.626Z,100.00
2019-01-13T12:31:36.197Z,100.00
2019-01-13T12:34:06.861Z,100.00
2019-01-13T12:36:41.386Z,100.00
2019-01-13T12:39:13.795Z,100.00
2019-01-13T12:41:44.360Z,100.00
2019-01-13T12:44:14.887Z,100.00
2019-01-13T12:46:45.476Z,100.00
2019-01-13T12:49:16.035Z,100.00
2019-01-13T12:51:46.650Z,100.00
2019-01-13T12:54:17.176Z,100.00
2019-01-13T12:56:50.544Z,100.00
2019-01-13T12:59:21.086Z,100.00
2019-01-13T13:01:51.665Z,100.00
2019-01-13T13:04:22.219Z,100.00
2019-01-13T13:06:52.828Z,100.00
2019-01-13T13:09:23.357Z,100.00
2019-01-13T13:11:53.883Z,100.00
2019-01-13T13:14:24.417Z,100.00
2019-01-13T13:16:54.973Z,100.00
2019-01-13T13:19:30.422Z,100.00
2019-01-13T13:22:02.675Z,100.00
2019-01-13T13:24:33.251Z,100.00
2019-01-13T13:27:03.820Z,100.00
2019-01-13T13:29:34.387Z,100.00
2019-01-13T13:32:04.935Z,100.00
2019-01-13T13:34:35.484Z,100.00
2019-01-13T13:37:06.059Z,100.00
2019-01-13T13:39:36.595Z,100.00
2019-01-13T13:42:07.172Z,100.00
2019-01-13T13:44:37.683Z,100.00
2019-01-13T13:47:08.261Z,100.00
2019-01-13T13:49:38.789Z,100.00
2019-01-13T13:52:09.352Z,100.00
2019-01-13T13:54:39.940Z,100.00
2019-01-13T13:57:10.531Z,100.00
2019-01-13T13:59:41.129Z,100.00
2019-01-13T14:02:11.664Z,100.00
2019-01-13T14:04:42.169Z,100.00
2019-01-13T14:07:12.711Z,100.00
2019-01-13T14:09:44.902Z,100.00
2019-01-13T14:12:15.454Z,100.00
2019-01-13T14:14:46.004Z,100.00
2019-01-13T14:17:16.596Z,100.00
2019-01-13T14:19:47.133Z,100.00
2019-01-13T14:22:17.684Z,100.00
2019-01-13T14:24:48.249Z,100.00
2019-01-13T14:27:18.782Z,100.00
2019-01-13T14:29:49.326Z,100.00
2019-01-13T14:32:19.836Z,100.00
2019-01-13T14:34:50.444Z,100.00
2019-01-13T14:37:21.055Z,100.00
2019-01-13T14:39:51.612Z,100.00
2019-01-13T14:42:22.169Z,100.00
2019-01-13T14:44:54.280Z,100.00
2019-01-13T14:47:24.899Z,100.00
2019-01-13T14:49:55.546Z,100.00
2019-01-13T14:52:26.057Z,100.00
2019-01-13T14:54:56.657Z,100.00
2019-01-13T14:57:31.430Z,100.00
2019-01-13T15:00:01.953Z,100.00
2019-01-13T15:02:32.481Z,100.00
2019-01-13T15:05:02.995Z,100.00
2019-01-13T15:07:33.563Z,100.00
2019-01-13T15:10:04.479Z,100.00
2019-01-13T15:12:35.055Z,100.00
2019-01-13T15:15:06.675Z,100.00
2019-01-13T15:17:40.373Z,100.00
2019-01-13T15:20:14.682Z,100.00
2019-01-13T15:22:45.650Z,100.00
2019-01-13T15:25:27.097Z,100.00
2019-01-13T15:27:57.783Z,100.00
2019-01-13T15:30:39.997Z,100.00
2019-01-13T15:33:12.149Z,100.00
2019-01-13T15:35:42.726Z,100.00
2019-01-13T15:38:13.286Z,100.00
2019-01-13T15:40:47.609Z,100.00
2019-01-13T15:43:20.224Z,100.00
2019-01-13T15:45:52.313Z,100.00
2019-01-13T15:48:23.037Z,100.00
2019-01-13T15:50:53.567Z,100.00
2019-01-13T15:53:24.156Z,100.00
2019-01-13T15:55:54.698Z,100.00
2019-01-13T15:58:25.241Z,100.00
2019-01-13T16:00:57.111Z,100.00
2019-01-13T16:03:27.647Z,100.00
2019-01-13T16:05:58.213Z,100.00
2019-01-13T16:08:31.575Z,100.00
2019-01-13T16:11:02.102Z,100.00
2019-01-13T16:13:32.689Z,100.00
2019-01-13T16:16:03.264Z,100.00
2019-01-13T16:18:34.546Z,100.00
2019-01-13T16:21:05.109Z,100.00
2019-01-13T16:23:35.709Z,100.00
2019-01-13T16:26:06.474Z,100.00
2019-01-13T16:28:40.209Z,100.00
2019-01-13T16:31:10.754Z,100.00
2019-01-13T16:33:41.355Z,100.00
2019-01-13T16:36:11.927Z,100.00
2019-01-13T16:38:42.463Z,100.00
2019-01-13T16:41:13.027Z,100.00
2019-01-13T16:43:43.575Z,100.00
2019-01-13T16:46:14.143Z,100.00
2019-01-13T16:48:44.746Z,100.00
2019-01-13T16:51:18.202Z,100.00
2019-01-13T16:53:48.798Z,100.00
2019-01-13T16:56:19.306Z,100.00
2019-01-13T16:58:50.035Z,100.00
2019-01-13T17:01:20.671Z,100.00
2019-01-13T17:03:51.237Z,100.00
2019-01-13T17:06:21.742Z,100.00
2019-01-13T17:08:52.361Z,100.00
2019-01-13T17:11:22.852Z,100.00
2019-01-13T17:13:53.473Z,100.00
2019-01-13T17:16:23.958Z,100.00
2019-01-13T17:18:54.580Z,100.00
2019-01-13T17:21:25.076Z,100.00
2019-01-13T17:23:55.685Z,100.00
2019-01-13T17:26:26.215Z,100.00
2019-01-13T17:28:56.768Z,100.00
2019-01-13T17:31:27.471Z,100.00
2019-01-13T17:33:58.059Z,100.00
2019-01-13T17:36:28.617Z,100.00
2019-01-13T17:38:59.228Z,100.00
2019-01-13T17:41:31.447Z,100.00
2019-01-13T17:44:02.047Z,100.00
2019-01-13T17:46:32.553Z,100.00
2019-01-13T17:49:03.153Z,100.00
2019-01-13T17:51:33.710Z,100.00
2019-01-13T17:54:04.326Z,100.00
2019-01-13T17:56:34.907Z,100.00
2019-01-13T17:59:05.446Z,100.00
2019-01-13T18:01:47.643Z,100.00
2019-01-13T18:04:18.213Z,100.00
2019-01-13T18:06:49.972Z,100.00
2019-01-13T18:09:20.539Z,100.00
2019-01-13T18:11:51.172Z,100.00
2019-01-13T18:14:21.719Z,100.00
2019-01-13T18:16:52.238Z,100.00
2019-01-13T18:19:25.845Z,100.00
2019-01-13T18:21:58.162Z,100.00
2019-01-13T18:24:28.743Z,100.00
2019-01-13T18:27:00.952Z,100.00
2019-01-13T18:29:31.496Z,100.00
2019-01-13T18:32:02.069Z,100.00
2019-01-13T18:34:32.623Z,100.00
2019-01-13T18:37:06.187Z,100.00
2019-01-13T18:39:36.779Z,100.00
2019-01-13T18:42:07.530Z,100.00
2019-01-13T18:44:38.288Z,100.00
2019-01-13T18:47:08.819Z,100.00
2019-01-13T18:49:39.423Z,100.00
2019-01-13T18:52:12.926Z,100.00
2019-01-13T18:54:43.458Z,100.00
2019-01-13T18:57:13.998Z,100.00
2019-01-13T18:59:44.613Z,100.00
2019-01-13T19:02:15.142Z,100.00
2019-01-13T19:04:45.806Z,100.00
2019-01-13T19:07:18.665Z,100.00
2019-01-13T19:09:49.259Z,100.00
2019-01-13T19:12:19.838Z,100.00
2019-01-13T19:14:58.368Z,100.00
2019-01-13T19:17:29.408Z,100.00
2019-01-13T19:20:24.565Z,100.00
2019-01-13T19:22:59.770Z,100.00
2019-01-13T19:25:33.229Z,100.00
2019-01-13T19:28:03.854Z,100.00
2019-01-13T19:30:34.374Z,100.00
2019-01-13T19:33:05.108Z,100.00
2019-01-13T19:35:35.647Z,99.88
2019-01-13T19:38:06.922Z,99.92
2019-01-13T19:40:38.332Z,100.00
2019-01-13T19:43:08.893Z,98.93
2019-01-13T19:45:39.422Z,98.27
2019-01-13T19:48:09.983Z,98.49
2019-01-13T19:50:40.500Z,99.06
2019-01-13T19:53:11.128Z,98.60
2019-01-13T19:55:41.605Z,98.62
2019-01-13T19:58:14.949Z,98.76
2019-01-13T20:00:45.478Z,99.36
2019-01-13T20:03:16.064Z,99.47
2019-01-13T20:05:46.636Z,99.15
2019-01-13T20:08:17.238Z,99.41
2019-01-13T20:10:52.365Z,99.17
2019-01-13T20:13:22.880Z,99.55
2019-01-13T20:15:53.465Z,100.00
2019-01-13T20:18:24.047Z,99.59
2019-01-13T20:20:54.639Z,100.00
2019-01-13T20:23:25.249Z,99.86
2019-01-13T20:25:55.822Z,99.36
2019-01-13T20:28:27.637Z,98.62
2019-01-13T20:31:00.917Z,98.05
2019-01-13T20:33:31.455Z,98.12
2019-01-13T20:36:02.003Z,97.86
2019-01-13T20:38:32.563Z,98.82
2019-01-13T20:41:03.098Z,99.68
2019-01-13T20:43:33.646Z,99.94
2019-01-13T20:46:04.396Z,100.00
2019-01-13T20:48:34.957Z,100.00
2019-01-13T20:51:05.542Z,100.00
2019-01-13T20:53:36.064Z,100.00
2019-01-13T20:56:06.745Z,100.00
2019-01-13T20:58:37.310Z,100.00
2019-01-13T21:01:07.863Z,100.00
2019-01-13T21:03:38.418Z,100.00
2019-01-13T21:06:08.940Z,100.00
2019-01-13T21:08:39.441Z,100.00
2019-01-13T21:11:10.015Z,100.00
2019-01-13T21:13:40.592Z,100.00
2019-01-13T21:16:12.155Z,100.00
2019-01-13T21:18:44.324Z,100.00
2019-01-13T21:21:14.826Z,100.00
2019-01-13T21:23:45.466Z,100.00
2019-01-13T21:26:16.019Z,100.00
2019-01-13T21:28:47.786Z,100.00
2019-01-13T21:31:18.341Z,100.00
2019-01-13T21:33:48.866Z,100.00
2019-01-13T21:36:19.384Z,100.00
2019-01-13T21:38:49.940Z,100.00
2019-01-13T21:41:20.491Z,100.00
2019-01-13T21:43:51.020Z,100.00
2019-01-13T21:46:21.585Z,100.00
2019-01-13T21:48:52.134Z,100.00
2019-01-13T21:51:22.733Z,100.00
2019-01-13T21:53:53.294Z,100.00
2019-01-13T21:56:23.817Z,98.80
2019-01-13T21:58:54.426Z,98.30
2019-01-13T22:01:27.997Z,98.53
2019-01-13T22:03:58.579Z,97.57
2019-01-13T22:06:29.091Z,97.83
2019-01-13T22:08:59.611Z,97.85
2019-01-13T22:11:32.992Z,97.69
2019-01-13T22:14:03.527Z,97.49
2019-01-13T22:16:34.041Z,97.92
2019-01-13T22:19:04.595Z,97.87
2019-01-13T22:21:35.164Z,97.99
2019-01-13T22:24:05.873Z,97.37
2019-01-13T22:26:36.479Z,97.78
2019-01-13T22:29:07.046Z,98.20
2019-01-13T22:31:37.560Z,98.57
2019-01-13T22:34:08.093Z,97.96
2019-01-13T22:36:38.660Z,98.37
2019-01-13T22:39:09.882Z,98.40
2019-01-13T22:41:40.411Z,99.00
2019-01-13T22:44:10.946Z,98.90
2019-01-13T22:46:41.513Z,98.64
2019-01-13T22:49:12.051Z,98.90
2019-01-13T22:51:42.586Z,97.85
2019-01-13T22:54:13.155Z,98.31
2019-01-13T22:56:43.660Z,96.82
2019-01-13T22:59:14.210Z,96.71
2019-01-13T23:01:46.423Z,96.65
2019-01-13T23:04:21.471Z,96.79
2019-01-13T23:06:51.975Z,95.75
2019-01-13T23:09:22.488Z,94.75
2019-01-13T23:11:53.019Z,95.32
2019-01-13T23:14:23.626Z,95.47
2019-01-13T23:16:54.236Z,94.86
2019-01-13T23:19:24.777Z,95.00
2019-01-13T23:21:58.329Z,95.16
2019-01-13T23:24:28.891Z,95.67
2019-01-13T23:26:59.388Z,95.38
2019-01-13T23:29:29.878Z,95.26
2019-01-13T23:32:00.484Z,95.66
2019-01-13T23:34:30.975Z,95.17
2019-01-13T23:37:01.500Z,95.85
2019-01-13T23:39:32.029Z,95.55
2019-01-13T23:42:02.645Z,95.34
2019-01-13T23:44:33.174Z,96.03
2019-01-13T23:47:03.695Z,96.08
2019-01-13T23:49:34.473Z,95.97
2019-01-13T23:52:05.069Z,95.46
2019-01-13T23:54:35.611Z,95.21
2019-01-13T23:57:06.113Z,95.29
2019-01-13T23:59:36.646Z,95.77
